Latest Weather Observations for Darwin Airport

IDD60901

Issued at 11:55 pm CST Tuesday 23 September 2014 (issued every 10 minutes, with the page automatically refreshed every 10 minutes)

About weather observations | Map of Darwin area stations | Latest observations for Darwin area | Other Formats
Station Details ID: 014015 Name: DARWIN AIRPORT Lat: -12.42 Lon: 130.89 Height: 30.4 m
Data from the previous 72 hours. | See also: Recent months at Darwin Airport
Date/Time
CST
Tmp

°C
App
Tmp
°C
Dew
Point
°C
Rel
Hum
%
Delta-T

°C
Wind Press
QNH
hPa
Press
MSL
hPa
Rain
since
9 am
mm
Dir
 
Spd
km/h
Gust
km/h
Spd
kts
Gust
kts
23/11:30pm 26.5 27.6 22.0 76 3.0 NW 19 24 10 13 1013.7 - 0.0
23/11:00pm 26.6 27.9 22.6 78 2.7 NW 20 26 11 14 1013.8 - 0.0
23/10:30pm 26.8 27.5 23.0 79 2.6 WNW 24 30 13 16 1013.7 - 0.0
23/10:00pm 26.9 27.1 22.1 75 3.2 WNW 24 28 13 15 1013.6 - 0.0
23/09:30pm 26.9 28.2 22.6 77 2.9 WNW 20 26 11 14 1013.5 - 0.0
23/09:00pm 27.0 27.5 22.7 77 2.9 WNW 24 28 13 15 1013.2 1012.9 0.0
23/08:30pm 27.0 27.9 22.6 77 3.0 WNW 22 28 12 15 1012.8 - 0.0
23/08:00pm 27.1 27.6 22.7 77 3.0 WNW 24 30 13 16 1012.7 - 0.0
23/07:30pm 27.3 27.5 22.7 76 3.1 WNW 26 32 14 17 1012.4 - 0.0
23/07:00pm 27.8 28.0 22.0 70 3.9 WNW 24 32 13 17 1012.0 - 0.0
23/06:30pm 28.6 28.0 19.7 58 5.8 WNW 22 30 12 16 1011.6 - 0.0
23/06:00pm 30.1 27.7 16.3 43 8.6 W 24 30 13 16 1011.3 1011.0 0.0
23/05:30pm 31.6 28.3 14.0 34 10.7 WNW 24 32 13 17 1010.9 - 0.0
23/05:00pm 32.1 29.1 13.8 33 11.1 WNW 22 28 12 15 1010.9 - 0.0
23/04:30pm 32.6 29.6 12.4 29 12.0 W 20 26 11 14 1010.9 - 0.0
23/04:00pm 32.4 29.2 13.1 31 11.6 WNW 22 28 12 15 1011.1 - 0.0
23/03:30pm 31.9 29.5 17.3 41 9.3 WNW 26 32 14 17 1011.4 - 0.0
23/03:00pm 31.9 30.2 18.9 46 8.5 WNW 26 33 14 18 1011.9 1011.6 0.0
23/02:30pm 31.9 30.0 18.5 45 8.7 WNW 26 30 14 16 1012.0 - 0.0
23/02:00pm 31.8 29.4 17.4 42 9.2 WNW 26 32 14 17 1012.4 - 0.0
23/01:30pm 31.4 29.1 17.6 43 8.8 WNW 26 32 14 17 1012.8 - 0.0
23/01:00pm 30.9 30.0 18.2 46 8.2 NW 20 28 11 15 1013.1 - 0.0
23/12:30pm 31.0 29.8 17.1 43 8.8 WNW 19 26 10 14 1013.7 - 0.0
23/12:00pm 30.7 30.8 19.2 50 7.5 NW 17 26 9 14 1014.0 1013.7 0.0
23/11:30am 29.4 29.9 20.0 57 6.2 NW 17 26 9 14 1014.4 - 0.0
23/11:00am 29.9 31.6 20.9 58 6.0 NW 13 19 7 10 1014.7 - 0.0
23/10:30am 29.4 31.0 21.5 62 5.3 NW 15 20 8 11 1015.0 - 0.0
23/10:00am 29.2 30.6 21.9 64 4.9 WNW 17 20 9 11 1015.2 - 0.0
23/09:30am 28.3 30.4 21.7 67 4.4 NNW 13 20 7 11 1015.0 - 0.0
23/09:00am 27.8 29.1 21.7 69 4.1 NNW 17 22 9 12 1015.0 1014.7 0.0
23/08:30am 26.9 28.1 22.1 75 3.2 N 19 24 10 13 1014.6 - 0.0
23/08:00am 25.8 28.1 22.7 83 2.1 NNE 15 19 8 10 1014.5 - 0.0
23/07:30am 24.3 27.0 22.2 88 1.4 NE 11 15 6 8 1014.0 - 0.0
23/07:00am 22.9 26.3 21.7 93 0.8 N 6 7 3 4 1013.6 - 0.0
23/06:30am 22.6 25.3 21.4 93 0.8 N 9 13 5 7 1013.2 - 0.0
23/06:00am 23.0 26.2 21.6 92 0.9 NNW 7 9 4 5 1013.0 1012.7 0.0
23/05:30am 23.1 26.2 21.4 90 1.1 NW 7 9 4 5 1012.8 - 0.0
23/05:00am 23.1 25.8 21.4 90 1.1 WNW 9 11 5 6 1012.6 - 0.0
23/04:30am 23.7 26.5 21.6 88 1.4 WNW 9 11 5 6 1012.4 - 0.0
23/04:00am 24.7 27.4 22.2 86 1.7 W 11 13 6 7 1012.2 - 0.0
23/03:30am 25.4 28.2 22.3 83 2.1 W 11 13 6 7 1012.2 - 0.0
23/03:00am 25.6 28.5 22.5 83 2.1 W 11 13 6 7 1012.3 1012.0 0.0
23/02:30am 25.6 28.5 22.5 83 2.1 W 11 13 6 7 1012.4 - 0.0
23/02:00am 25.8 28.3 22.5 82 2.2 W 13 17 7 9 1012.6 - 0.0
23/01:30am 26.1 28.6 22.5 80 2.4 W 13 15 7 8 1012.9 - 0.0
23/01:00am 26.3 28.9 22.6 80 2.5 W 13 15 7 8 1012.8 - 0.0
23/12:30am 26.3 28.8 22.4 79 2.6 W 13 17 7 9 1013.1 - 0.0
23/12:00am 26.5 28.6 22.5 78 2.7 WNW 15 19 8 10 1013.3 1013.0 0.0
 
Date/Time
CST
Tmp

°C
App
Tmp
°C
Dew
Point
°C
Rel
Hum
%
Delta-T

°C
Wind Press
QNH
hPa
Press
MSL
hPa
Rain
since
9 am
mm
Dir
 
Spd
km/h
Gust
km/h
Spd
kts
Gust
kts
22/11:30pm 26.8 28.1 22.3 76 3.0 WNW 19 24 10 13 1013.2 - 0.0
22/11:00pm 26.9 28.8 22.1 75 3.2 WNW 15 17 8 9 1013.7 - 0.0
22/10:30pm 26.9 28.9 22.3 76 3.1 WNW 15 17 8 9 1013.6 - 0.0
22/10:00pm 27.3 29.4 22.4 74 3.3 WNW 15 17 8 9 1013.7 - 0.0
22/09:30pm 27.3 29.6 22.1 73 3.5 WNW 13 19 7 10 1013.6 - 0.0
22/09:00pm 27.2 29.1 21.3 70 3.9 WNW 13 15 7 8 1013.2 1012.9 0.0
22/08:30pm 27.4 28.9 20.6 66 4.5 W 13 19 7 10 1012.8 - 0.0
22/08:00pm 27.6 28.5 20.1 63 4.9 W 15 19 8 10 1012.4 - 0.0
22/07:30pm 27.6 28.3 19.6 61 5.2 W 15 17 8 9 1012.2 - 0.0
22/07:00pm 27.9 28.3 19.1 58 5.7 WNW 15 19 8 10 1012.1 - 0.0
22/06:30pm 28.0 28.3 19.7 60 5.4 NW 17 22 9 12 1012.0 - 0.0
22/06:00pm 28.3 28.2 19.5 59 5.7 NW 19 26 10 14 1011.5 1011.2 0.0
22/05:30pm 29.3 27.3 17.3 48 7.6 WNW 24 28 13 15 1011.3 - 0.0
22/05:00pm 29.6 29.5 20.0 56 6.3 NNW 20 24 11 13 1010.9 - 0.0
22/04:30pm 29.2 29.3 20.4 59 5.8 NNW 20 26 11 14 1010.8 - 0.0
22/04:00pm 29.9 29.1 20.0 55 6.5 NNW 24 28 13 15 1010.6 - 0.0
22/03:30pm 30.0 29.9 20.7 57 6.2 N 22 28 12 15 1010.7 - 0.0
22/03:00pm 30.4 30.6 20.5 55 6.6 NNW 20 26 11 14 1011.1 1010.8 0.0
22/02:30pm 30.5 30.3 19.7 52 7.1 NNW 20 30 11 16 1011.6 - 0.0
22/02:00pm 30.7 30.3 19.4 51 7.4 NNW 20 28 11 15 1011.9 - 0.0
22/01:30pm 30.2 30.1 19.5 52 7.0 NNW 19 26 10 14 1012.4 - 0.0
22/01:00pm 29.8 30.2 19.9 55 6.5 NW 17 26 9 14 1013.0 - 0.0
22/12:30pm 31.1 31.3 20.1 52 7.3 NNW 19 26 10 14 1013.7 - 0.0
22/12:00pm 30.4 29.9 19.2 51 7.3 WNW 20 28 11 15 1014.2 1013.9 0.0
22/11:30am 30.0 30.2 20.1 55 6.5 NW 19 24 10 13 1014.6 - 0.0
22/11:00am 30.4 31.5 20.4 55 6.6 NNW 15 19 8 10 1015.1 - 0.0
22/10:30am 29.6 31.0 19.5 54 6.6 W 11 17 6 9 1015.6 - 0.0
22/10:00am 29.0 31.5 19.8 57 6.0 ESE 6 11 3 6 1015.9 - 0.0
22/09:30am 27.7 30.4 20.7 65 4.6 SSW 7 11 4 6 1016.2 - 0.0
22/09:00am 27.3 30.3 21.3 69 4.0 S 7 11 4 6 1016.0 1015.7 0.2
22/08:30am 26.5 29.4 21.7 75 3.2 SSE 9 11 5 6 1015.8 - 0.2
22/08:00am 25.4 28.6 21.6 79 2.5 SSE 7 9 4 5 1015.4 - 0.0
22/07:30am 24.4 27.3 21.7 85 1.8 SE 9 11 5 6 1015.1 - 0.0
22/07:00am 21.9 24.1 20.4 91 1.0 E 9 11 5 6 1014.5 - 0.0
22/06:30am 21.8 24.3 20.2 91 1.0 SE 7 7 4 4 1014.0 - 0.0
22/06:00am 22.9 25.5 20.4 86 1.6 S 7 9 4 5 1013.8 1013.5 0.0
22/05:30am 22.7 25.6 20.7 88 1.3 S 6 9 3 5 1013.2 - 0.0
22/05:00am 23.4 27.5 20.8 85 1.7 CALM 0 0 0 0 1013.2 - 0.0
22/04:30am 22.8 25.5 20.6 87 1.4 NE 7 11 4 6 1012.9 - 0.0
22/04:00am 22.7 25.3 20.5 87 1.4 NE 7 9 4 5 1012.9 - 0.0
22/03:30am 23.3 26.1 20.9 86 1.6 NE 7 9 4 5 1013.0 - 0.0
22/03:00am 23.1 25.9 20.8 87 1.5 NNE 7 9 4 5 1012.9 1012.6 0.0
22/02:30am 23.4 25.7 20.6 84 1.8 N 9 9 5 5 1012.9 - 0.0
22/02:00am 24.5 26.9 20.8 80 2.4 NNW 9 11 5 6 1013.0 - 0.0
22/01:30am 23.5 25.8 20.7 84 1.8 NNW 9 11 5 6 1013.2 - 0.0
22/01:00am 24.1 26.5 20.9 82 2.1 NNW 9 13 5 7 1013.6 - 0.0
22/12:30am 24.5 27.2 21.3 82 2.1 WNW 9 11 5 6 1014.2 - 0.0
22/12:00am 25.3 27.8 21.1 77 2.8 NW 9 11 5 6 1014.4 1014.1 0.0
 
Date/Time
CST
Tmp

°C
App
Tmp
°C
Dew
Point
°C
Rel
Hum
%
Delta-T

°C
Wind Press
QNH
hPa
Press
MSL
hPa
Rain
since
9 am
mm
Dir
 
Spd
km/h
Gust
km/h
Spd
kts
Gust
kts
21/11:30pm 26.3 28.5 21.2 73 3.4 W 11 15 6 8 1014.6 - 0.0
21/11:00pm 26.3 28.5 21.2 73 3.4 W 11 15 6 8 1014.6 - 0.0
21/10:30pm 26.5 28.3 21.1 72 3.6 W 13 17 7 9 1014.6 - 0.0
21/10:00pm 26.6 28.0 21.0 71 3.7 W 15 20 8 11 1014.4 - 0.0
21/09:30pm 26.7 27.6 20.9 70 3.8 W 17 22 9 12 1013.9 - 0.0
21/09:00pm 26.8 27.3 20.9 70 3.9 W 19 24 10 13 1013.7 1013.4 0.0
21/08:30pm 26.9 27.3 21.0 70 3.9 W 20 26 11 14 1013.4 - 0.0
21/08:00pm 27.1 27.6 20.9 69 4.1 W 19 26 10 14 1013.1 - 0.0
21/07:30pm 27.6 27.9 20.3 64 4.8 W 19 24 10 13 1012.6 - 0.0
21/07:00pm 28.9 27.8 15.2 43 8.4 WNW 15 20 8 11 1012.3 - 0.0
21/06:30pm 29.4 28.9 15.0 41 8.8 NW 11 15 6 8 1011.8 - 0.0
21/06:00pm 30.3 29.1 14.1 37 9.8 WNW 13 17 7 9 1011.7 1011.4 0.0
21/05:30pm 30.7 29.4 14.9 38 9.7 NNW 15 20 8 11 1011.4 - 0.0
21/05:00pm 31.1 29.0 15.2 38 9.8 WNW 20 28 11 15 1011.2 - 0.0
21/04:30pm 30.9 28.9 16.4 41 9.1 WNW 22 28 12 15 1011.1 - 0.0
21/04:00pm 30.6 28.9 19.8 52 7.1 WNW 28 33 15 18 1011.1 - 0.0
21/03:30pm 30.5 29.0 20.2 54 6.8 NW 28 35 15 19 1011.1 - 0.0
21/03:00pm 31.2 30.0 20.0 51 7.4 NW 26 32 14 17 1011.2 1010.9 0.0
21/02:30pm 31.6 30.2 18.9 47 8.3 NW 24 32 13 17 1011.4 - 0.0
21/02:00pm 31.6 30.5 18.7 46 8.4 NW 22 28 12 15 1011.7 - 0.0
21/01:30pm 31.3 30.1 19.2 48 7.9 NW 24 30 13 16 1012.3 - 0.0
21/01:00pm 31.5 30.8 18.7 46 8.3 NW 20 28 11 15 1012.9 - 0.0
21/12:30pm 31.0 30.5 19.0 48 7.8 NW 20 28 11 15 1013.6 - 0.0
21/12:00pm 30.9 30.2 18.7 48 7.9 NW 20 26 11 14 1014.1 1013.8 0.0
21/11:30am 31.2 29.6 14.9 37 10.0 NW 17 26 9 14 1014.7 - 0.0
21/11:00am 31.2 30.5 16.4 41 9.3 NW 15 22 8 12 1015.0 - 0.0
21/10:30am 30.2 30.6 18.2 48 7.7 WSW 13 20 7 11 1015.4 - 0.0
21/10:00am 29.6 30.6 18.6 51 7.1 SW 11 15 6 8 1015.6 - 0.0
21/09:30am 28.8 30.0 18.3 53 6.7 SSW 9 13 5 7 1015.5 - 0.0
21/09:00am 27.4 29.6 21.2 69 4.1 SSW 11 15 6 8 1015.5 1015.2 0.0
21/08:30am 26.3 29.3 22.0 77 2.9 S 9 13 5 7 1015.2 - 0.0
21/08:00am 25.6 28.2 22.0 80 2.4 S 11 13 6 7 1015.1 - 0.0
21/07:30am 24.8 27.7 21.8 83 2.0 SSW 9 11 5 6 1014.7 - 0.0
21/07:00am 23.5 25.6 20.9 85 1.7 SSW 11 11 6 6 1014.3 - 0.0
21/06:30am 23.9 26.6 21.3 85 1.7 SSW 9 11 5 6 1014.0 - 0.0
21/06:00am 24.5 27.1 21.2 82 2.2 SW 9 11 5 6 1013.7 1013.4 0.0
21/05:30am 24.7 27.0 20.7 78 2.6 SW 9 11 5 6 1013.4 - 0.0
21/05:00am 24.6 26.7 20.1 76 2.9 W 9 11 5 6 1013.2 - 0.0
21/04:30am 24.3 26.2 20.5 79 2.5 W 11 13 6 7 1013.0 - 0.0
21/04:00am 25.0 26.5 20.6 76 2.9 WNW 13 15 7 8 1013.0 - 0.0
21/03:30am 25.2 26.2 20.3 74 3.2 WNW 15 19 8 10 1012.9 - 0.0
21/03:00am 25.8 26.9 20.5 72 3.5 NW 15 20 8 11 1012.8 1012.5 0.0
21/02:30am 25.9 27.3 21.1 75 3.2 NW 15 19 8 10 1013.0 - 0.0
21/02:00am 25.9 27.8 21.4 76 3.0 NW 13 17 7 9 1013.3 - 0.0
21/01:30am 25.6 27.6 21.5 78 2.7 W 13 17 7 9 1013.8 - 0.0
21/01:00am 25.7 28.1 21.6 78 2.7 W 11 17 6 9 1014.1 - 0.0
21/12:30am 25.9 28.4 21.7 77 2.8 W 11 15 6 8 1014.3 - 0.0
21/12:00am 26.1 28.5 21.6 76 3.0 W 11 15 6 8 1014.4 1014.1 0.0

Latest Capital City Observations: Canberra | Sydney | Melbourne | Brisbane | Adelaide | Perth | Hobart | Darwin

Other Formats:

Comma delimited format used in spreadsheet applications
http://www.bom.gov.au/fwo/IDD60901/IDD60901.94120.axf

JavaScript Object Notation format (JSON) in row-major order
http://www.bom.gov.au/fwo/IDD60901/IDD60901.94120.json